createdAt,value
2023-02-28T00:00:53.885Z,1016.55
2023-02-28T00:10:54.129Z,1016.59
2023-02-28T00:20:54.468Z,1016.66
2023-02-28T00:30:54.525Z,1016.64
2023-02-28T00:40:55.754Z,1016.57
2023-02-28T00:50:55.003Z,1016.60
2023-02-28T01:00:55.400Z,1016.65
2023-02-28T01:10:55.464Z,1016.71
2023-02-28T01:20:55.789Z,1016.65
2023-02-28T01:30:55.849Z,1016.70
2023-02-28T01:40:56.156Z,1016.69
2023-02-28T01:50:56.207Z,1016.66
2023-02-28T02:00:56.530Z,1016.62
2023-02-28T02:10:56.580Z,1016.72
2023-02-28T02:20:56.886Z,1016.61
2023-02-28T02:30:56.925Z,1016.59
2023-02-28T02:40:58.174Z,1016.52
2023-02-28T02:50:57.425Z,1016.51
2023-02-28T03:00:57.769Z,1016.53
2023-02-28T03:10:57.795Z,1016.49
2023-02-28T03:20:58.098Z,1016.65
2023-02-28T03:31:03.641Z,1016.63
2023-02-28T03:40:58.271Z,1016.64
2023-02-28T03:50:58.510Z,1016.63
2023-02-28T04:00:58.733Z,1016.68
2023-02-28T04:10:58.977Z,1016.71
2023-02-28T04:20:59.196Z,1016.78
2023-02-28T04:30:59.474Z,1016.86
2023-02-28T04:40:59.502Z,1016.86
2023-02-28T04:50:59.851Z,1016.89
2023-02-28T05:00:59.878Z,1016.93
2023-02-28T05:11:00.216Z,1016.99
2023-02-28T05:21:00.240Z,1017.06
2023-02-28T05:31:00.590Z,1017.11
2023-02-28T05:41:00.639Z,1017.12
2023-02-28T05:51:00.945Z,1017.18
2023-02-28T06:01:00.993Z,1017.24
2023-02-28T06:11:01.322Z,1017.33
2023-02-28T06:21:01.344Z,1017.44
2023-02-28T06:31:01.628Z,1017.54
2023-02-28T06:41:01.728Z,1017.67
2023-02-28T06:51:02.066Z,1017.71
2023-02-28T07:01:02.103Z,1017.86
2023-02-28T07:11:02.425Z,1017.95
2023-02-28T07:21:02.460Z,1018.04
2023-02-28T07:31:02.814Z,1018.06
2023-02-28T07:41:02.930Z,1018.14
2023-02-28T07:51:03.083Z,1018.18
2023-02-28T08:01:03.173Z,1018.27
2023-02-28T08:11:06.518Z,1018.34
2023-02-28T08:21:03.349Z,1018.47
2023-02-28T08:31:03.616Z,1018.44
2023-02-28T08:41:03.648Z,1018.54
2023-02-28T08:51:08.537Z,1018.45
2023-02-28T09:01:04.080Z,1018.43
2023-02-28T09:11:04.142Z,1018.44
2023-02-28T09:21:04.382Z,1018.59
2023-02-28T09:31:04.769Z,1018.61
2023-02-28T09:41:04.869Z,1018.63
2023-02-28T09:51:05.199Z,1018.68
2023-02-28T10:01:05.296Z,1018.61
2023-02-28T10:11:05.482Z,1018.48
2023-02-28T10:21:05.543Z,1018.49
2023-02-28T10:31:08.951Z,1018.60
2023-02-28T10:41:06.100Z,1018.47
2023-02-28T10:51:06.206Z,1018.59
2023-02-28T11:01:06.237Z,1018.59
2023-02-28T11:11:06.584Z,1018.50
2023-02-28T11:21:06.610Z,1018.34
2023-02-28T11:31:08.896Z,1018.32
2023-02-28T11:41:06.938Z,1018.15
2023-02-28T11:51:07.204Z,1018.12
2023-02-28T12:01:07.514Z,1018.17
2023-02-28T12:11:07.584Z,1018.12
2023-02-28T12:21:07.634Z,1018.12
2023-02-28T12:31:08.043Z,1018.06
2023-02-28T12:41:08.100Z,1018.03
2023-02-28T12:51:10.383Z,1018.00
2023-02-28T13:01:08.642Z,1017.99
2023-02-28T13:11:20.846Z,1018.01
2023-02-28T13:21:09.863Z,1018.01
2023-02-28T13:31:09.206Z,1017.99
2023-02-28T13:41:09.255Z,1017.97
2023-02-28T13:51:09.539Z,1017.96
2023-02-28T14:01:09.603Z,1017.98
2023-02-28T14:11:10.733Z,1017.98
2023-02-28T14:21:09.794Z,1018.00
2023-02-28T14:31:10.179Z,1018.12
2023-02-28T14:41:10.271Z,1018.12
2023-02-28T14:51:10.549Z,1018.23
2023-02-28T15:01:10.686Z,1018.29
2023-02-28T15:11:10.824Z,1018.44
2023-02-28T15:21:10.883Z,1018.44
2023-02-28T15:31:11.237Z,1018.58
2023-02-28T15:41:11.280Z,1018.61
2023-02-28T15:51:11.555Z,1018.66
2023-02-28T16:01:11.606Z,1018.74
2023-02-28T16:11:12.105Z,1018.75
2023-02-28T16:21:11.995Z,1018.80
2023-02-28T16:31:12.347Z,1018.86
2023-02-28T16:41:12.606Z,1018.97
2023-02-28T16:51:12.586Z,1019.09
2023-02-28T17:01:12.688Z,1019.12
2023-02-28T17:11:13.062Z,1019.21
2023-02-28T17:21:12.981Z,1019.17
2023-02-28T17:31:13.560Z,1019.30
2023-02-28T17:41:13.384Z,1019.25
2023-02-28T17:51:13.745Z,1019.35
2023-02-28T18:01:13.727Z,1019.39
2023-02-28T18:11:17.188Z,1019.33
2023-02-28T18:21:14.085Z,1019.43
2023-02-28T18:31:14.731Z,1019.35
2023-02-28T18:41:14.775Z,1019.19
2023-02-28T18:51:14.782Z,1019.23
2023-02-28T19:01:15.110Z,1019.25
2023-02-28T19:11:15.397Z,1019.21
2023-02-28T19:21:15.314Z,1019.22
2023-02-28T19:31:15.957Z,1019.21
2023-02-28T19:41:15.982Z,1019.30
2023-02-28T20:01:16.392Z,1019.25
2023-02-28T20:11:18.416Z,1019.24
2023-02-28T20:21:16.708Z,1019.14
2023-02-28T20:31:16.553Z,1019.11
2023-02-28T20:41:16.875Z,1019.12
2023-02-28T20:51:18.099Z,1019.04
2023-02-28T21:01:18.128Z,1019.00
2023-02-28T21:11:17.283Z,1019.03
2023-02-28T21:21:17.548Z,1019.03
2023-02-28T21:31:18.019Z,1019.07
2023-02-28T21:41:17.944Z,1018.95
2023-02-28T21:51:18.224Z,1018.86
2023-02-28T22:01:18.360Z,1018.86
2023-02-28T22:11:18.491Z,1018.91
2023-02-28T22:21:18.521Z,1018.81
2023-02-28T22:31:18.871Z,1018.85
2023-02-28T22:41:18.928Z,1018.85
2023-02-28T22:51:19.231Z,1018.86
2023-02-28T23:01:19.318Z,1018.86
2023-02-28T23:11:19.500Z,1018.85
2023-02-28T23:21:19.568Z,1018.82
2023-02-28T23:31:19.884Z,1018.82
2023-02-28T23:41:19.935Z,1018.85
2023-02-28T23:51:20.240Z,1018.70
